Greaterville, Arizona
Current Conditions -  °F | °C
As of 9:56 PM on Monday 22 Dec 2014 (Local Time) from KALK Reporting Station
Clear Clear  
Wind Chill: 42°   Ceiling: Unl
Heat Index: 46°   Visibility: 10mi
Dew Point: 34°   Wind: 8mph
Humidity: 63%   Direction: 250°WSW
Pressure: 30.04"   Gusts: NA
Location:  31.7987°N, 110.687°W
Report Text: KALK 230456Z AUTO 25007KT 10SM CLR 08/01 A3004 RMK AO2 SLP117 T00780011 TSNO
Loading
Personal Weather Stations






























Interactive Weather Map New forecast layout! Learn more

10-Day Weather Forecast

Advertisements
Track Severe Weather on mobile